Username:

Password:

Remember / Register
Jezyk polski English Nederlands Portuguese Spanish
Promoted fansite
Facebook Twitter Tibia Tunnel

4120
23700
8340
Share exp with lvls 530-1193

Shiaa Mack

Check at Tibia.com
Nationality: - Set nationality
Vocation: Elder Druid
Level: 795 (~8,311,353,800exp)
World: Solidera
Guild: -
Account status: Premium Account
Online: offline
Last month Current month Current week Mon Tue Wed Thu Fri Sat Sun
57h 0 0 0 0 0 0 0 0 0

# When Killed by Lvl Exp lost(*)
1 16-05-2019 07:17 earth 794 -79,217,637
2 16-05-2019 06:59 energy 794 -79,217,637
3 14-05-2019 22:03 energy 794 -79,217,637
4 14-05-2019 20:56 earth 794 -79,217,637
5 13-05-2019 23:45 earth 793 -78,923,860
6 13-05-2019 15:32 a pit reaver 794 -79,217,637
7 12-05-2019 19:16 energy 794 -79,217,637
8 10-05-2019 07:20 earth 794 -79,217,637
9 10-05-2019 02:53 earth 793 -78,923,860
10 09-05-2019 22:49 earth 793 -78,923,860
11 09-05-2019 15:30 energy 793 -78,923,860
12 09-05-2019 00:54 energy 793 -78,923,860
13 08-05-2019 23:45 earth 793 -78,923,860
14 07-05-2019 18:52 energy 793 -78,923,860
15 07-05-2019 14:59 earth 793 -78,923,860
16 05-05-2019 22:44 energy 793 -78,923,860
17 05-05-2019 14:08 death 793 -78,923,860
18 04-05-2019 17:16 earth 792 -78,630,809
19 04-05-2019 13:58 energy 791 -78,338,484
20 04-05-2019 11:24 earth 791 -78,338,484
21 03-05-2019 16:16 earth 790 -78,046,884
22 02-05-2019 14:42 earth 790 -78,046,884
23 01-05-2019 17:07 earth 790 -78,046,884
24 30-04-2019 11:15 death 790 -78,046,884
25 30-04-2019 01:54 energy 789 -77,756,009
26 29-04-2019 05:03 a pit reaver 789 -77,756,009
27 28-04-2019 15:16 a pit reaver 789 -77,756,009
28 27-04-2019 15:44 earth 788 -77,465,857
29 27-04-2019 11:34 earth 788 -77,465,857
30 26-04-2019 16:11 energy 788 -77,465,857
31 25-04-2019 20:06 earth 787 -77,176,427
32 25-04-2019 15:19 earth 787 -77,176,427
33 25-04-2019 11:15 earth 787 -77,176,427
34 25-04-2019 00:08 death 787 -77,176,427
35 24-04-2019 20:18 death 787 -77,176,427
36 24-04-2019 11:28 earth 786 -76,887,719
37 23-04-2019 15:19 earth 785 -76,599,731
38 23-04-2019 12:02 energy 785 -76,599,731
39 22-04-2019 20:32 energy 785 -76,599,731
40 22-04-2019 15:43 death 786 -76,887,719
41 22-04-2019 11:28 earth 785 -76,599,731
42 18-04-2019 07:25 earth 786 -76,887,719
43 18-04-2019 02:21 earth 786 -76,887,719
44 11-04-2019 01:46 energy 786 -76,887,719
45 10-04-2019 23:31 energy 785 -76,599,731
46 09-04-2019 15:09 earth 785 -76,599,731
47 09-04-2019 12:36 energy 785 -76,599,731
48 08-04-2019 05:05 earth 784 -76,312,463
49 07-04-2019 06:43 energy 784 -76,312,463
50 06-04-2019 02:32 energy 784 -76,312,463
51 05-04-2019 22:01 a pit reaver 784 -76,312,463
52 05-04-2019 19:26 a pit reaver 783 -76,025,914
53 05-04-2019 07:40 earth 783 -76,025,914
54 04-04-2019 14:42 energy 782 -75,740,082
55 03-04-2019 01:32 earth 782 -75,740,082
56 31-03-2019 21:58 earth 782 -75,740,082
57 31-03-2019 00:45 energy 782 -75,740,082
58 28-03-2019 05:09 a spiky carnivor 784 -76,312,463
59 28-03-2019 03:47 a pit reaver 784 -76,312,463
60 25-03-2019 15:12 earth 783 -76,025,914
61 24-03-2019 16:24 energy 783 -76,025,914
62 22-03-2019 03:31 charging Outburst 782 -75,740,082
63 21-03-2019 23:48 energy 782 -75,740,082
64 21-03-2019 15:58 earth 782 -75,740,082
65 21-03-2019 15:35 earth 782 -75,740,082
66 19-03-2019 23:27 a pit reaver 781 -75,454,968
67 19-03-2019 15:52 energy 781 -75,454,968
68 19-03-2019 14:55 earth 781 -75,454,968
69 19-03-2019 13:37 energy 781 -75,454,968
70 18-03-2019 23:18 earth 780 -75,170,570
71 02-03-2019 17:27 earth 776 -74,040,120
72 22-01-2019 18:28 Omrafir 768 -71,813,320
73 27-11-2018 08:36 earth 759 -69,362,033
74 07-11-2018 20:27 a falcon knight 756 -68,557,503
75 06-08-2018 17:43 a guzzlemaw 713 -57,700,012
76 13-07-2018 16:18 a midnight asura 708 -56,517,469
77 29-06-2018 23:39 a vexclaw 701 -54,889,200
78 25-06-2018 23:14 a vexclaw 700 -54,659,174
79 03-06-2018 22:16 a glooth anemone 693 -53,066,950
80 19-05-2018 06:43 a hellflayer 686 -51,505,934
81 02-04-2018 00:18 a high voltage elemental 679 -49,975,817
82 25-03-2018 07:46 a silencer 679 -49,975,817
83 16-03-2018 22:18 The fire empowered Duke 678 -49,759,733
84 14-03-2018 21:28 a diremaw 679 -49,975,817
85 23-11-2017 03:11 Gaz'haragoth 648 -43,563,058
86 23-11-2017 03:04 Gaz'haragoth 648 -43,563,058
87 01-10-2017 19:12 a silencer 632 -40,479,185
88 16-09-2017 00:49 a silencer 629 -39,917,657
89 16-07-2017 19:39 a frazzlemaw 604 -35,438,702
90 15-07-2017 15:20 a guzzlemaw 604 -35,438,702

Number of death: 90
Experience lost: 6,458,530,610
Level of character without dying: 962
Killed by players: 0

No blacklist entries.


Login to add report

Search guild or character